sensor_id;sensor_type;location;lat;lon;timestamp;P1;durP1;ratioP1;P2;durP2;ratioP2
4839;SDS011;2434;48.486;7.964;2022-10-26T00:01:10;5.03;;;1.70;;
4839;SDS011;2434;48.486;7.964;2022-10-26T00:03:40;2.83;;;1.90;;
4839;SDS011;2434;48.486;7.964;2022-10-26T00:06:10;4.63;;;2.30;;
4839;SDS011;2434;48.486;7.964;2022-10-26T00:08:39;10.53;;;2.00;;
4839;SDS011;2434;48.486;7.964;2022-10-26T00:11:08;2.30;;;1.87;;
4839;SDS011;2434;48.486;7.964;2022-10-26T00:13:39;3.20;;;2.27;;
4839;SDS011;2434;48.486;7.964;2022-10-26T00:16:08;4.50;;;2.10;;
4839;SDS011;2434;48.486;7.964;2022-10-26T00:18:37;5.67;;;1.60;;
4839;SDS011;2434;48.486;7.964;2022-10-26T00:21:06;1.60;;;1.50;;
4839;SDS011;2434;48.486;7.964;2022-10-26T00:23:35;5.73;;;1.60;;
4839;SDS011;2434;48.486;7.964;2022-10-26T00:26:04;4.30;;;1.50;;
4839;SDS011;2434;48.486;7.964;2022-10-26T00:28:33;3.63;;;1.47;;
4839;SDS011;2434;48.486;7.964;2022-10-26T00:31:05;2.40;;;1.40;;
4839;SDS011;2434;48.486;7.964;2022-10-26T00:33:34;4.20;;;1.27;;
4839;SDS011;2434;48.486;7.964;2022-10-26T00:36:03;6.40;;;1.67;;
4839;SDS011;2434;48.486;7.964;2022-10-26T00:38:31;3.47;;;1.23;;
4839;SDS011;2434;48.486;7.964;2022-10-26T00:40:59;5.07;;;1.40;;
4839;SDS011;2434;48.486;7.964;2022-10-26T00:43:37;6.87;;;1.57;;
4839;SDS011;2434;48.486;7.964;2022-10-26T00:46:20;1.63;;;1.00;;
4839;SDS011;2434;48.486;7.964;2022-10-26T00:48:51;3.63;;;1.40;;
4839;SDS011;2434;48.486;7.964;2022-10-26T00:51:23;7.73;;;1.67;;
4839;SDS011;2434;48.486;7.964;2022-10-26T00:53:55;1.57;;;1.03;;
4839;SDS011;2434;48.486;7.964;2022-10-26T00:56:23;3.90;;;0.93;;
4839;SDS011;2434;48.486;7.964;2022-10-26T00:58:51;4.20;;;1.20;;
4839;SDS011;2434;48.486;7.964;2022-10-26T01:01:22;6.50;;;1.40;;
4839;SDS011;2434;48.486;7.964;2022-10-26T01:03:50;6.90;;;2.00;;
4839;SDS011;2434;48.486;7.964;2022-10-26T01:06:20;5.43;;;1.50;;
4839;SDS011;2434;48.486;7.964;2022-10-26T01:08:48;4.40;;;1.57;;
4839;SDS011;2434;48.486;7.964;2022-10-26T01:11:17;3.07;;;1.67;;
4839;SDS011;2434;48.486;7.964;2022-10-26T01:13:45;6.17;;;1.60;;
4839;SDS011;2434;48.486;7.964;2022-10-26T01:16:38;4.73;;;1.60;;
4839;SDS011;2434;48.486;7.964;2022-10-26T01:19:26;3.97;;;1.67;;
4839;SDS011;2434;48.486;7.964;2022-10-26T01:22:23;2.57;;;1.50;;
4839;SDS011;2434;48.486;7.964;2022-10-26T01:24:58;2.37;;;1.30;;
4839;SDS011;2434;48.486;7.964;2022-10-26T01:27:31;3.50;;;1.60;;
4839;SDS011;2434;48.486;7.964;2022-10-26T01:30:14;4.83;;;1.50;;
4839;SDS011;2434;48.486;7.964;2022-10-26T01:32:50;2.00;;;1.50;;
4839;SDS011;2434;48.486;7.964;2022-10-26T01:35:34;9.00;;;1.50;;
4839;SDS011;2434;48.486;7.964;2022-10-26T01:38:09;1.93;;;1.50;;
4839;SDS011;2434;48.486;7.964;2022-10-26T01:40:44;8.43;;;2.10;;
4839;SDS011;2434;48.486;7.964;2022-10-26T01:43:16;1.37;;;1.27;;
4839;SDS011;2434;48.486;7.964;2022-10-26T01:45:48;6.43;;;2.00;;
4839;SDS011;2434;48.486;7.964;2022-10-26T01:48:18;6.70;;;1.80;;
4839;SDS011;2434;48.486;7.964;2022-10-26T01:50:49;5.87;;;1.67;;
4839;SDS011;2434;48.486;7.964;2022-10-26T01:53:19;5.27;;;1.77;;
4839;SDS011;2434;48.486;7.964;2022-10-26T01:55:49;3.83;;;1.40;;
4839;SDS011;2434;48.486;7.964;2022-10-26T01:58:26;5.77;;;1.43;;
4839;SDS011;2434;48.486;7.964;2022-10-26T02:01:11;3.60;;;1.90;;
4839;SDS011;2434;48.486;7.964;2022-10-26T02:03:52;1.63;;;1.53;;
4839;SDS011;2434;48.486;7.964;2022-10-26T02:06:32;2.50;;;1.37;;
4839;SDS011;2434;48.486;7.964;2022-10-26T02:09:07;5.83;;;1.80;;
4839;SDS011;2434;48.486;7.964;2022-10-26T02:11:45;5.77;;;1.73;;
4839;SDS011;2434;48.486;7.964;2022-10-26T02:14:17;6.53;;;1.97;;
4839;SDS011;2434;48.486;7.964;2022-10-26T02:16:52;4.77;;;1.90;;
4839;SDS011;2434;48.486;7.964;2022-10-26T02:19:26;2.40;;;1.70;;
4839;SDS011;2434;48.486;7.964;2022-10-26T02:22:05;11.40;;;2.40;;
4839;SDS011;2434;48.486;7.964;2022-10-26T02:24:39;9.40;;;2.10;;
4839;SDS011;2434;48.486;7.964;2022-10-26T02:27:11;3.87;;;2.40;;
4839;SDS011;2434;48.486;7.964;2022-10-26T02:29:42;4.13;;;1.77;;
4839;SDS011;2434;48.486;7.964;2022-10-26T02:32:13;5.20;;;1.70;;
4839;SDS011;2434;48.486;7.964;2022-10-26T02:34:43;1.73;;;1.40;;
4839;SDS011;2434;48.486;7.964;2022-10-26T02:37:14;2.83;;;1.57;;
4839;SDS011;2434;48.486;7.964;2022-10-26T02:39:46;3.57;;;1.93;;
4839;SDS011;2434;48.486;7.964;2022-10-26T02:42:18;3.83;;;2.20;;
4839;SDS011;2434;48.486;7.964;2022-10-26T02:44:47;4.30;;;1.73;;
4839;SDS011;2434;48.486;7.964;2022-10-26T02:47:20;4.00;;;1.70;;
4839;SDS011;2434;48.486;7.964;2022-10-26T02:49:48;2.37;;;1.50;;
4839;SDS011;2434;48.486;7.964;2022-10-26T02:52:19;4.83;;;1.60;;
4839;SDS011;2434;48.486;7.964;2022-10-26T02:54:51;1.90;;;1.37;;
4839;SDS011;2434;48.486;7.964;2022-10-26T02:57:25;2.00;;;1.13;;
4839;SDS011;2434;48.486;7.964;2022-10-26T02:59:59;1.77;;;1.30;;
4839;SDS011;2434;48.486;7.964;2022-10-26T03:02:29;4.57;;;2.10;;
4839;SDS011;2434;48.486;7.964;2022-10-26T03:05:02;3.10;;;1.63;;
4839;SDS011;2434;48.486;7.964;2022-10-26T03:07:36;1.63;;;1.47;;
4839;SDS011;2434;48.486;7.964;2022-10-26T03:10:04;2.03;;;1.37;;
4839;SDS011;2434;48.486;7.964;2022-10-26T03:12:33;4.97;;;1.23;;
4839;SDS011;2434;48.486;7.964;2022-10-26T03:15:02;2.90;;;1.90;;
4839;SDS011;2434;48.486;7.964;2022-10-26T03:17:32;5.17;;;1.63;;
4839;SDS011;2434;48.486;7.964;2022-10-26T03:20:00;3.90;;;2.23;;
4839;SDS011;2434;48.486;7.964;2022-10-26T03:22:28;1.93;;;1.50;;
4839;SDS011;2434;48.486;7.964;2022-10-26T03:24:57;3.10;;;1.33;;
4839;SDS011;2434;48.486;7.964;2022-10-26T03:27:25;2.20;;;1.37;;
4839;SDS011;2434;48.486;7.964;2022-10-26T03:29:53;2.10;;;1.00;;
4839;SDS011;2434;48.486;7.964;2022-10-26T03:32:23;6.87;;;1.50;;
4839;SDS011;2434;48.486;7.964;2022-10-26T03:34:52;2.57;;;1.50;;
4839;SDS011;2434;48.486;7.964;2022-10-26T03:37:21;2.50;;;1.10;;
4839;SDS011;2434;48.486;7.964;2022-10-26T03:39:49;4.40;;;2.17;;
4839;SDS011;2434;48.486;7.964;2022-10-26T03:42:17;3.60;;;1.13;;
4839;SDS011;2434;48.486;7.964;2022-10-26T03:44:45;3.90;;;1.30;;
4839;SDS011;2434;48.486;7.964;2022-10-26T03:47:13;6.07;;;1.60;;
4839;SDS011;2434;48.486;7.964;2022-10-26T03:49:42;3.80;;;1.43;;
4839;SDS011;2434;48.486;7.964;2022-10-26T03:52:11;5.67;;;2.00;;
4839;SDS011;2434;48.486;7.964;2022-10-26T03:54:39;3.50;;;1.30;;
4839;SDS011;2434;48.486;7.964;2022-10-26T03:57:07;5.80;;;1.40;;
4839;SDS011;2434;48.486;7.964;2022-10-26T03:59:36;3.23;;;1.37;;
4839;SDS011;2434;48.486;7.964;2022-10-26T04:02:04;4.30;;;1.80;;
4839;SDS011;2434;48.486;7.964;2022-10-26T04:04:32;8.73;;;1.50;;
4839;SDS011;2434;48.486;7.964;2022-10-26T04:07:00;2.40;;;1.97;;
4839;SDS011;2434;48.486;7.964;2022-10-26T04:09:30;1.67;;;1.40;;
4839;SDS011;2434;48.486;7.964;2022-10-26T04:11:58;2.27;;;1.80;;
4839;SDS011;2434;48.486;7.964;2022-10-26T04:14:26;7.93;;;1.80;;
4839;SDS011;2434;48.486;7.964;2022-10-26T04:16:54;2.53;;;1.67;;
4839;SDS011;2434;48.486;7.964;2022-10-26T04:19:23;3.60;;;1.83;;
4839;SDS011;2434;48.486;7.964;2022-10-26T04:21:51;3.43;;;1.57;;
4839;SDS011;2434;48.486;7.964;2022-10-26T04:24:19;5.47;;;1.60;;
4839;SDS011;2434;48.486;7.964;2022-10-26T04:26:49;2.97;;;1.90;;
4839;SDS011;2434;48.486;7.964;2022-10-26T04:29:18;2.27;;;1.63;;
4839;SDS011;2434;48.486;7.964;2022-10-26T04:31:46;9.93;;;2.10;;
4839;SDS011;2434;48.486;7.964;2022-10-26T04:34:14;7.73;;;1.70;;
4839;SDS011;2434;48.486;7.964;2022-10-26T04:36:42;2.93;;;1.77;;
4839;SDS011;2434;48.486;7.964;2022-10-26T04:39:10;4.80;;;1.67;;
4839;SDS011;2434;48.486;7.964;2022-10-26T04:41:38;5.23;;;1.90;;
4839;SDS011;2434;48.486;7.964;2022-10-26T04:44:08;6.97;;;2.00;;
4839;SDS011;2434;48.486;7.964;2022-10-26T04:46:36;3.37;;;1.80;;
4839;SDS011;2434;48.486;7.964;2022-10-26T04:49:04;6.33;;;2.10;;
4839;SDS011;2434;48.486;7.964;2022-10-26T04:51:32;3.13;;;2.53;;
4839;SDS011;2434;48.486;7.964;2022-10-26T04:54:00;3.00;;;1.80;;
4839;SDS011;2434;48.486;7.964;2022-10-26T04:56:29;8.13;;;2.43;;
4839;SDS011;2434;48.486;7.964;2022-10-26T04:58:57;4.50;;;1.83;;
4839;SDS011;2434;48.486;7.964;2022-10-26T05:01:27;4.67;;;1.47;;
4839;SDS011;2434;48.486;7.964;2022-10-26T05:03:55;2.40;;;1.70;;
4839;SDS011;2434;48.486;7.964;2022-10-26T05:06:24;5.37;;;2.30;;
4839;SDS011;2434;48.486;7.964;2022-10-26T05:08:52;2.90;;;1.70;;
4839;SDS011;2434;48.486;7.964;2022-10-26T05:11:20;11.10;;;2.73;;
4839;SDS011;2434;48.486;7.964;2022-10-26T05:13:48;7.00;;;1.80;;
4839;SDS011;2434;48.486;7.964;2022-10-26T05:16:17;4.20;;;1.90;;
4839;SDS011;2434;48.486;7.964;2022-10-26T05:18:47;3.60;;;1.77;;
4839;SDS011;2434;48.486;7.964;2022-10-26T05:21:16;4.47;;;1.80;;
4839;SDS011;2434;48.486;7.964;2022-10-26T05:23:48;2.60;;;1.57;;
4839;SDS011;2434;48.486;7.964;2022-10-26T05:26:17;3.33;;;1.70;;
4839;SDS011;2434;48.486;7.964;2022-10-26T05:28:46;7.83;;;1.77;;
4839;SDS011;2434;48.486;7.964;2022-10-26T05:31:14;9.70;;;1.93;;
4839;SDS011;2434;48.486;7.964;2022-10-26T05:33:42;4.00;;;2.23;;
4839;SDS011;2434;48.486;7.964;2022-10-26T05:36:12;9.70;;;2.33;;
4839;SDS011;2434;48.486;7.964;2022-10-26T05:38:40;10.23;;;2.83;;
4839;SDS011;2434;48.486;7.964;2022-10-26T05:41:08;7.37;;;3.00;;
4839;SDS011;2434;48.486;7.964;2022-10-26T05:43:37;3.20;;;1.80;;
4839;SDS011;2434;48.486;7.964;2022-10-26T05:46:05;4.63;;;1.63;;
4839;SDS011;2434;48.486;7.964;2022-10-26T05:48:33;3.37;;;1.80;;
4839;SDS011;2434;48.486;7.964;2022-10-26T05:51:01;23.63;;;4.37;;
4839;SDS011;2434;48.486;7.964;2022-10-26T05:53:31;3.53;;;2.30;;
4839;SDS011;2434;48.486;7.964;2022-10-26T05:56:00;9.03;;;1.93;;
4839;SDS011;2434;48.486;7.964;2022-10-26T05:58:34;8.43;;;2.00;;
4839;SDS011;2434;48.486;7.964;2022-10-26T06:01:08;5.67;;;2.73;;
4839;SDS011;2434;48.486;7.964;2022-10-26T06:03:53;3.13;;;1.87;;
4839;SDS011;2434;48.486;7.964;2022-10-26T06:06:32;10.03;;;2.17;;
4839;SDS011;2434;48.486;7.964;2022-10-26T06:09:07;3.93;;;2.20;;
4839;SDS011;2434;48.486;7.964;2022-10-26T06:11:37;4.40;;;2.23;;
4839;SDS011;2434;48.486;7.964;2022-10-26T06:14:07;9.10;;;2.70;;
4839;SDS011;2434;48.486;7.964;2022-10-26T06:16:38;5.53;;;1.90;;
4839;SDS011;2434;48.486;7.964;2022-10-26T06:19:21;2.80;;;2.40;;
4839;SDS011;2434;48.486;7.964;2022-10-26T06:22:03;10.37;;;3.10;;
4839;SDS011;2434;48.486;7.964;2022-10-26T06:24:43;3.73;;;1.87;;
4839;SDS011;2434;48.486;7.964;2022-10-26T06:27:19;7.90;;;2.40;;
4839;SDS011;2434;48.486;7.964;2022-10-26T06:29:56;7.17;;;2.53;;
4839;SDS011;2434;48.486;7.964;2022-10-26T06:32:27;5.30;;;2.37;;
4839;SDS011;2434;48.486;7.964;2022-10-26T06:34:58;5.80;;;2.30;;
4839;SDS011;2434;48.486;7.964;2022-10-26T06:37:33;4.67;;;2.07;;
4839;SDS011;2434;48.486;7.964;2022-10-26T06:40:05;4.77;;;2.47;;
4839;SDS011;2434;48.486;7.964;2022-10-26T06:42:34;14.40;;;2.90;;
4839;SDS011;2434;48.486;7.964;2022-10-26T06:45:03;4.70;;;2.33;;
4839;SDS011;2434;48.486;7.964;2022-10-26T06:47:32;3.47;;;2.63;;
4839;SDS011;2434;48.486;7.964;2022-10-26T06:50:08;4.03;;;1.97;;
4839;SDS011;2434;48.486;7.964;2022-10-26T06:52:54;5.40;;;2.13;;
4839;SDS011;2434;48.486;7.964;2022-10-26T06:55:33;11.90;;;2.43;;
4839;SDS011;2434;48.486;7.964;2022-10-26T06:58:07;8.10;;;3.00;;
4839;SDS011;2434;48.486;7.964;2022-10-26T07:00:38;4.20;;;2.37;;
4839;SDS011;2434;48.486;7.964;2022-10-26T07:03:07;8.80;;;2.57;;
4839;SDS011;2434;48.486;7.964;2022-10-26T07:05:35;9.63;;;2.60;;
4839;SDS011;2434;48.486;7.964;2022-10-26T07:08:03;8.50;;;2.70;;
4839;SDS011;2434;48.486;7.964;2022-10-26T07:10:33;5.90;;;2.20;;
4839;SDS011;2434;48.486;7.964;2022-10-26T07:13:04;4.30;;;2.23;;
4839;SDS011;2434;48.486;7.964;2022-10-26T07:15:32;5.20;;;2.53;;
4839;SDS011;2434;48.486;7.964;2022-10-26T07:18:01;9.87;;;3.10;;
4839;SDS011;2434;48.486;7.964;2022-10-26T07:20:31;9.00;;;3.00;;
4839;SDS011;2434;48.486;7.964;2022-10-26T07:23:02;4.17;;;2.27;;
4839;SDS011;2434;48.486;7.964;2022-10-26T07:25:33;5.67;;;3.00;;
4839;SDS011;2434;48.486;7.964;2022-10-26T07:28:04;4.13;;;2.53;;
4839;SDS011;2434;48.486;7.964;2022-10-26T07:30:34;3.00;;;1.93;;
4839;SDS011;2434;48.486;7.964;2022-10-26T07:33:04;3.90;;;2.40;;
4839;SDS011;2434;48.486;7.964;2022-10-26T07:35:34;3.70;;;2.50;;
4839;SDS011;2434;48.486;7.964;2022-10-26T07:38:02;7.67;;;2.40;;
4839;SDS011;2434;48.486;7.964;2022-10-26T07:40:31;7.00;;;2.70;;
4839;SDS011;2434;48.486;7.964;2022-10-26T07:43:02;5.37;;;2.93;;
4839;SDS011;2434;48.486;7.964;2022-10-26T07:45:30;10.20;;;2.43;;
4839;SDS011;2434;48.486;7.964;2022-10-26T07:47:58;8.97;;;2.50;;
4839;SDS011;2434;48.486;7.964;2022-10-26T07:50:27;11.27;;;2.83;;
4839;SDS011;2434;48.486;7.964;2022-10-26T07:52:56;8.33;;;4.27;;
4839;SDS011;2434;48.486;7.964;2022-10-26T07:55:25;5.47;;;2.30;;
4839;SDS011;2434;48.486;7.964;2022-10-26T07:57:53;3.57;;;2.60;;
4839;SDS011;2434;48.486;7.964;2022-10-26T08:00:24;11.63;;;2.87;;
4839;SDS011;2434;48.486;7.964;2022-10-26T08:02:54;11.97;;;3.27;;
4839;SDS011;2434;48.486;7.964;2022-10-26T08:05:22;6.53;;;2.57;;
4839;SDS011;2434;48.486;7.964;2022-10-26T08:07:51;9.00;;;2.93;;
4839;SDS011;2434;48.486;7.964;2022-10-26T08:10:19;4.20;;;2.20;;
4839;SDS011;2434;48.486;7.964;2022-10-26T08:12:51;4.90;;;2.33;;
4839;SDS011;2434;48.486;7.964;2022-10-26T08:15:20;11.67;;;3.50;;
4839;SDS011;2434;48.486;7.964;2022-10-26T08:17:49;12.40;;;2.70;;
4839;SDS011;2434;48.486;7.964;2022-10-26T08:20:18;9.20;;;2.80;;
4839;SDS011;2434;48.486;7.964;2022-10-26T08:22:46;3.70;;;2.63;;
4839;SDS011;2434;48.486;7.964;2022-10-26T08:25:15;9.53;;;3.13;;
4839;SDS011;2434;48.486;7.964;2022-10-26T08:27:46;9.60;;;3.00;;
4839;SDS011;2434;48.486;7.964;2022-10-26T08:30:14;10.27;;;3.03;;
4839;SDS011;2434;48.486;7.964;2022-10-26T08:32:43;10.33;;;3.40;;
4839;SDS011;2434;48.486;7.964;2022-10-26T08:35:13;7.07;;;3.60;;
4839;SDS011;2434;48.486;7.964;2022-10-26T08:37:41;8.17;;;3.30;;
4839;SDS011;2434;48.486;7.964;2022-10-26T08:40:10;4.33;;;2.30;;
4839;SDS011;2434;48.486;7.964;2022-10-26T08:42:43;12.57;;;3.23;;
4839;SDS011;2434;48.486;7.964;2022-10-26T08:45:17;13.37;;;3.70;;
4839;SDS011;2434;48.486;7.964;2022-10-26T08:47:59;8.43;;;3.53;;
4839;SDS011;2434;48.486;7.964;2022-10-26T08:50:33;7.13;;;2.50;;
4839;SDS011;2434;48.486;7.964;2022-10-26T08:53:10;10.77;;;2.80;;
4839;SDS011;2434;48.486;7.964;2022-10-26T08:55:45;8.97;;;3.70;;
4839;SDS011;2434;48.486;7.964;2022-10-26T08:58:17;7.07;;;3.37;;
4839;SDS011;2434;48.486;7.964;2022-10-26T09:00:48;8.20;;;2.80;;
4839;SDS011;2434;48.486;7.964;2022-10-26T09:03:17;4.50;;;2.73;;
4839;SDS011;2434;48.486;7.964;2022-10-26T09:05:51;5.47;;;3.10;;
4839;SDS011;2434;48.486;7.964;2022-10-26T09:08:36;4.40;;;2.50;;
4839;SDS011;2434;48.486;7.964;2022-10-26T09:11:15;9.70;;;2.60;;
4839;SDS011;2434;48.486;7.964;2022-10-26T09:13:58;10.03;;;3.20;;
4839;SDS011;2434;48.486;7.964;2022-10-26T09:16:32;9.27;;;2.40;;
4839;SDS011;2434;48.486;7.964;2022-10-26T09:19:18;9.83;;;3.77;;
4839;SDS011;2434;48.486;7.964;2022-10-26T09:22:01;7.67;;;2.00;;
4839;SDS011;2434;48.486;7.964;2022-10-26T09:24:35;11.83;;;2.70;;
4839;SDS011;2434;48.486;7.964;2022-10-26T09:27:11;10.00;;;2.47;;
4839;SDS011;2434;48.486;7.964;2022-10-26T09:29:43;5.70;;;2.97;;
4839;SDS011;2434;48.486;7.964;2022-10-26T09:32:12;14.57;;;2.83;;
4839;SDS011;2434;48.486;7.964;2022-10-26T09:34:45;13.30;;;3.37;;
4839;SDS011;2434;48.486;7.964;2022-10-26T09:37:18;3.80;;;2.03;;
4839;SDS011;2434;48.486;7.964;2022-10-26T09:39:53;7.63;;;2.77;;
4839;SDS011;2434;48.486;7.964;2022-10-26T09:42:26;7.47;;;2.80;;
4839;SDS011;2434;48.486;7.964;2022-10-26T09:45:11;4.37;;;2.47;;
4839;SDS011;2434;48.486;7.964;2022-10-26T09:47:45;4.80;;;2.93;;
4839;SDS011;2434;48.486;7.964;2022-10-26T09:50:21;12.10;;;2.33;;
4839;SDS011;2434;48.486;7.964;2022-10-26T09:52:54;5.07;;;2.63;;
4839;SDS011;2434;48.486;7.964;2022-10-26T09:55:23;5.03;;;2.20;;
4839;SDS011;2434;48.486;7.964;2022-10-26T09:57:53;6.33;;;2.30;;
4839;SDS011;2434;48.486;7.964;2022-10-26T10:00:25;9.83;;;3.13;;
4839;SDS011;2434;48.486;7.964;2022-10-26T10:02:55;9.70;;;4.40;;
4839;SDS011;2434;48.486;7.964;2022-10-26T10:05:28;12.17;;;2.93;;
4839;SDS011;2434;48.486;7.964;2022-10-26T10:08:19;10.00;;;3.10;;
4839;SDS011;2434;48.486;7.964;2022-10-26T10:10:55;11.63;;;3.50;;
4839;SDS011;2434;48.486;7.964;2022-10-26T10:13:25;7.83;;;3.10;;
4839;SDS011;2434;48.486;7.964;2022-10-26T10:15:56;11.50;;;3.57;;
4839;SDS011;2434;48.486;7.964;2022-10-26T10:18:30;7.23;;;2.60;;
4839;SDS011;2434;48.486;7.964;2022-10-26T10:20:59;9.40;;;2.70;;
4839;SDS011;2434;48.486;7.964;2022-10-26T10:23:29;11.13;;;3.40;;
4839;SDS011;2434;48.486;7.964;2022-10-26T10:26:00;3.97;;;2.63;;
4839;SDS011;2434;48.486;7.964;2022-10-26T10:28:33;10.10;;;2.63;;
4839;SDS011;2434;48.486;7.964;2022-10-26T10:31:02;7.33;;;2.53;;
4839;SDS011;2434;48.486;7.964;2022-10-26T10:33:33;13.33;;;3.40;;
4839;SDS011;2434;48.486;7.964;2022-10-26T10:36:05;8.60;;;3.20;;
4839;SDS011;2434;48.486;7.964;2022-10-26T10:38:39;6.00;;;3.27;;
4839;SDS011;2434;48.486;7.964;2022-10-26T10:41:17;9.40;;;3.77;;
4839;SDS011;2434;48.486;7.964;2022-10-26T10:43:52;7.80;;;3.20;;
4839;SDS011;2434;48.486;7.964;2022-10-26T10:46:24;10.60;;;2.90;;
4839;SDS011;2434;48.486;7.964;2022-10-26T10:48:59;10.50;;;2.80;;
4839;SDS011;2434;48.486;7.964;2022-10-26T10:51:30;5.47;;;2.60;;
4839;SDS011;2434;48.486;7.964;2022-10-26T10:54:06;12.90;;;3.07;;
4839;SDS011;2434;48.486;7.964;2022-10-26T10:56:50;10.47;;;3.23;;
4839;SDS011;2434;48.486;7.964;2022-10-26T10:59:34;12.40;;;3.20;;
4839;SDS011;2434;48.486;7.964;2022-10-26T11:02:16;7.93;;;2.57;;
4839;SDS011;2434;48.486;7.964;2022-10-26T11:05:12;8.40;;;3.63;;
4839;SDS011;2434;48.486;7.964;2022-10-26T11:07:53;5.77;;;2.27;;
4839;SDS011;2434;48.486;7.964;2022-10-26T11:10:29;9.40;;;2.97;;
4839;SDS011;2434;48.486;7.964;2022-10-26T11:13:03;8.93;;;2.90;;
4839;SDS011;2434;48.486;7.964;2022-10-26T11:15:39;13.03;;;3.33;;
4839;SDS011;2434;48.486;7.964;2022-10-26T11:18:11;6.60;;;3.00;;
4839;SDS011;2434;48.486;7.964;2022-10-26T11:20:46;10.33;;;3.50;;
4839;SDS011;2434;48.486;7.964;2022-10-26T11:23:20;7.00;;;3.20;;
4839;SDS011;2434;48.486;7.964;2022-10-26T11:25:57;8.47;;;2.60;;
4839;SDS011;2434;48.486;7.964;2022-10-26T11:28:34;6.40;;;2.30;;
4839;SDS011;2434;48.486;7.964;2022-10-26T11:31:11;14.77;;;2.77;;
4839;SDS011;2434;48.486;7.964;2022-10-26T11:33:44;8.47;;;3.27;;
4839;SDS011;2434;48.486;7.964;2022-10-26T11:36:19;5.83;;;2.77;;
4839;SDS011;2434;48.486;7.964;2022-10-26T11:38:52;7.30;;;2.67;;
4839;SDS011;2434;48.486;7.964;2022-10-26T11:41:33;17.47;;;3.27;;
4839;SDS011;2434;48.486;7.964;2022-10-26T11:44:08;8.60;;;2.70;;
4839;SDS011;2434;48.486;7.964;2022-10-26T11:46:42;5.97;;;2.40;;
4839;SDS011;2434;48.486;7.964;2022-10-26T11:49:15;4.47;;;2.60;;
4839;SDS011;2434;48.486;7.964;2022-10-26T11:51:49;7.70;;;2.93;;
4839;SDS011;2434;48.486;7.964;2022-10-26T11:54:22;11.23;;;3.40;;
4839;SDS011;2434;48.486;7.964;2022-10-26T11:56:57;14.90;;;2.90;;
4839;SDS011;2434;48.486;7.964;2022-10-26T11:59:27;12.17;;;3.10;;
4839;SDS011;2434;48.486;7.964;2022-10-26T12:02:00;8.27;;;2.60;;
4839;SDS011;2434;48.486;7.964;2022-10-26T12:04:32;11.17;;;2.93;;
4839;SDS011;2434;48.486;7.964;2022-10-26T12:07:03;8.20;;;3.33;;
4839;SDS011;2434;48.486;7.964;2022-10-26T12:09:37;9.70;;;2.67;;
4839;SDS011;2434;48.486;7.964;2022-10-26T12:12:10;14.50;;;3.63;;
4839;SDS011;2434;48.486;7.964;2022-10-26T12:14:45;7.23;;;3.03;;
4839;SDS011;2434;48.486;7.964;2022-10-26T12:17:21;6.17;;;3.10;;
4839;SDS011;2434;48.486;7.964;2022-10-26T12:19:57;6.47;;;2.80;;
4839;SDS011;2434;48.486;7.964;2022-10-26T12:22:31;8.40;;;3.37;;
4839;SDS011;2434;48.486;7.964;2022-10-26T12:25:05;7.23;;;2.53;;
4839;SDS011;2434;48.486;7.964;2022-10-26T12:27:54;8.73;;;3.00;;
4839;SDS011;2434;48.486;7.964;2022-10-26T12:30:28;6.60;;;3.03;;
4839;SDS011;2434;48.486;7.964;2022-10-26T12:32:58;8.03;;;2.47;;
4839;SDS011;2434;48.486;7.964;2022-10-26T12:35:28;11.33;;;3.10;;
4839;SDS011;2434;48.486;7.964;2022-10-26T12:41:24;12.67;;;3.67;;
4839;SDS011;2434;48.486;7.964;2022-10-26T12:43:57;9.63;;;2.83;;
4839;SDS011;2434;48.486;7.964;2022-10-26T12:46:38;8.23;;;2.30;;
4839;SDS011;2434;48.486;7.964;2022-10-26T12:52:26;9.43;;;3.03;;
4839;SDS011;2434;48.486;7.964;2022-10-26T12:58:09;3.50;;;2.40;;
4839;SDS011;2434;48.486;7.964;2022-10-26T13:04:13;7.43;;;2.40;;
4839;SDS011;2434;48.486;7.964;2022-10-26T13:06:56;21.00;;;2.43;;
4839;SDS011;2434;48.486;7.964;2022-10-26T13:09:39;6.70;;;2.30;;
4839;SDS011;2434;48.486;7.964;2022-10-26T13:12:12;8.10;;;3.10;;
4839;SDS011;2434;48.486;7.964;2022-10-26T13:14:48;9.63;;;2.67;;
4839;SDS011;2434;48.486;7.964;2022-10-26T13:17:24;10.13;;;2.53;;
4839;SDS011;2434;48.486;7.964;2022-10-26T13:19:54;8.83;;;3.33;;
4839;SDS011;2434;48.486;7.964;2022-10-26T13:22:24;11.40;;;3.33;;
4839;SDS011;2434;48.486;7.964;2022-10-26T13:24:53;9.20;;;2.70;;
4839;SDS011;2434;48.486;7.964;2022-10-26T13:27:38;12.37;;;2.93;;
4839;SDS011;2434;48.486;7.964;2022-10-26T13:33:26;7.57;;;2.60;;
4839;SDS011;2434;48.486;7.964;2022-10-26T13:36:02;14.00;;;3.27;;
4839;SDS011;2434;48.486;7.964;2022-10-26T13:38:40;14.70;;;3.20;;
4839;SDS011;2434;48.486;7.964;2022-10-26T13:41:15;9.23;;;3.53;;
4839;SDS011;2434;48.486;7.964;2022-10-26T13:43:49;9.60;;;3.03;;
4839;SDS011;2434;48.486;7.964;2022-10-26T13:46:21;12.03;;;3.40;;
4839;SDS011;2434;48.486;7.964;2022-10-26T13:48:56;18.57;;;4.27;;
4839;SDS011;2434;48.486;7.964;2022-10-26T13:51:31;8.67;;;3.03;;
4839;SDS011;2434;48.486;7.964;2022-10-26T13:54:10;9.30;;;3.17;;
4839;SDS011;2434;48.486;7.964;2022-10-26T13:56:47;7.40;;;2.70;;
4839;SDS011;2434;48.486;7.964;2022-10-26T13:59:27;10.30;;;2.70;;
4839;SDS011;2434;48.486;7.964;2022-10-26T14:02:05;25.07;;;3.40;;
4839;SDS011;2434;48.486;7.964;2022-10-26T14:04:35;11.77;;;3.77;;
4839;SDS011;2434;48.486;7.964;2022-10-26T14:07:03;18.57;;;3.67;;
4839;SDS011;2434;48.486;7.964;2022-10-26T14:09:32;9.70;;;2.90;;
4839;SDS011;2434;48.486;7.964;2022-10-26T14:12:00;13.17;;;3.53;;
4839;SDS011;2434;48.486;7.964;2022-10-26T14:14:29;10.83;;;4.20;;
4839;SDS011;2434;48.486;7.964;2022-10-26T14:17:00;13.87;;;3.70;;
4839;SDS011;2434;48.486;7.964;2022-10-26T14:19:31;10.77;;;3.80;;
4839;SDS011;2434;48.486;7.964;2022-10-26T14:22:02;20.63;;;4.30;;
4839;SDS011;2434;48.486;7.964;2022-10-26T14:24:32;8.07;;;2.63;;
4839;SDS011;2434;48.486;7.964;2022-10-26T14:27:15;17.30;;;4.10;;
4839;SDS011;2434;48.486;7.964;2022-10-26T14:29:45;8.00;;;4.00;;
4839;SDS011;2434;48.486;7.964;2022-10-26T14:32:33;15.90;;;3.77;;
4839;SDS011;2434;48.486;7.964;2022-10-26T14:35:03;7.67;;;3.57;;
4839;SDS011;2434;48.486;7.964;2022-10-26T14:37:36;9.27;;;4.00;;
4839;SDS011;2434;48.486;7.964;2022-10-26T14:40:09;12.67;;;3.87;;
4839;SDS011;2434;48.486;7.964;2022-10-26T14:42:43;15.77;;;4.27;;
4839;SDS011;2434;48.486;7.964;2022-10-26T14:45:20;12.27;;;4.13;;
4839;SDS011;2434;48.486;7.964;2022-10-26T14:48:17;15.73;;;3.30;;
4839;SDS011;2434;48.486;7.964;2022-10-26T14:50:58;15.80;;;4.20;;
4839;SDS011;2434;48.486;7.964;2022-10-26T14:53:33;10.10;;;3.63;;
4839;SDS011;2434;48.486;7.964;2022-10-26T14:56:15;10.67;;;3.73;;
4839;SDS011;2434;48.486;7.964;2022-10-26T14:58:47;11.40;;;3.20;;
4839;SDS011;2434;48.486;7.964;2022-10-26T15:01:23;15.20;;;3.53;;
4839;SDS011;2434;48.486;7.964;2022-10-26T15:03:57;20.40;;;3.63;;
4839;SDS011;2434;48.486;7.964;2022-10-26T15:06:37;11.37;;;4.10;;
4839;SDS011;2434;48.486;7.964;2022-10-26T15:09:30;11.13;;;3.60;;
4839;SDS011;2434;48.486;7.964;2022-10-26T15:12:04;22.03;;;4.60;;
4839;SDS011;2434;48.486;7.964;2022-10-26T15:14:34;13.00;;;3.93;;
4839;SDS011;2434;48.486;7.964;2022-10-26T15:17:03;26.13;;;4.40;;
4839;SDS011;2434;48.486;7.964;2022-10-26T15:19:31;6.50;;;3.53;;
4839;SDS011;2434;48.486;7.964;2022-10-26T15:21:59;18.97;;;4.57;;
4839;SDS011;2434;48.486;7.964;2022-10-26T15:24:30;12.33;;;3.80;;
4839;SDS011;2434;48.486;7.964;2022-10-26T15:27:10;12.80;;;3.40;;
4839;SDS011;2434;48.486;7.964;2022-10-26T15:29:41;17.20;;;4.20;;
4839;SDS011;2434;48.486;7.964;2022-10-26T15:32:18;11.90;;;4.00;;
4839;SDS011;2434;48.486;7.964;2022-10-26T15:38:01;33.53;;;7.50;;
4839;SDS011;2434;48.486;7.964;2022-10-26T15:40:31;23.07;;;6.90;;
4839;SDS011;2434;48.486;7.964;2022-10-26T15:43:02;16.03;;;5.53;;
4839;SDS011;2434;48.486;7.964;2022-10-26T15:45:31;13.27;;;3.90;;
4839;SDS011;2434;48.486;7.964;2022-10-26T15:48:17;16.70;;;4.00;;
4839;SDS011;2434;48.486;7.964;2022-10-26T15:50:49;14.03;;;3.73;;
4839;SDS011;2434;48.486;7.964;2022-10-26T15:53:18;16.83;;;4.97;;
4839;SDS011;2434;48.486;7.964;2022-10-26T15:55:50;37.10;;;13.60;;
4839;SDS011;2434;48.486;7.964;2022-10-26T15:58:19;32.17;;;13.30;;
4839;SDS011;2434;48.486;7.964;2022-10-26T16:00:48;46.30;;;17.83;;
4839;SDS011;2434;48.486;7.964;2022-10-26T16:03:17;23.20;;;9.03;;
4839;SDS011;2434;48.486;7.964;2022-10-26T16:05:55;17.73;;;4.57;;